createdAt,value
2019-06-20T00:00:50.961Z,7.67
2019-06-20T00:03:20.331Z,8.90
2019-06-20T00:05:49.659Z,10.00
2019-06-20T00:08:19.232Z,7.25
2019-06-20T00:10:48.531Z,8.93
2019-06-20T00:13:17.830Z,9.75
2019-06-20T00:15:47.400Z,7.40
2019-06-20T00:18:16.647Z,9.23
2019-06-20T00:20:45.961Z,13.48
2019-06-20T00:23:15.544Z,6.70
2019-06-20T00:25:44.845Z,9.30
2019-06-20T00:28:14.143Z,8.33
2019-06-20T00:30:43.450Z,8.73
2019-06-20T00:33:12.739Z,9.13
2019-06-20T00:35:42.141Z,8.20
2019-06-20T00:38:11.440Z,11.22
2019-06-20T00:40:40.755Z,10.50
2019-06-20T00:43:17.665Z,10.85
2019-06-20T00:45:41.076Z,7.62
2019-06-20T00:48:10.370Z,9.13
2019-06-20T00:50:39.740Z,9.85
2019-06-20T00:53:09.087Z,7.85
2019-06-20T00:55:38.345Z,9.25
2019-06-20T00:58:07.648Z,10.25
2019-06-20T01:00:37.275Z,10.30
2019-06-20T01:03:06.638Z,7.95
2019-06-20T01:05:35.946Z,9.25
2019-06-20T01:08:05.232Z,9.20
2019-06-20T01:10:34.846Z,12.55
2019-06-20T01:13:04.104Z,11.20
2019-06-20T01:15:33.494Z,15.83
2019-06-20T01:18:02.786Z,9.43
2019-06-20T01:20:32.101Z,11.28
2019-06-20T01:23:01.396Z,14.28
2019-06-20T01:25:41.334Z,22.02
2019-06-20T01:28:10.904Z,14.35
2019-06-20T01:30:40.565Z,15.80
2019-06-20T01:33:10.272Z,17.65
2019-06-20T01:35:39.586Z,14.15
2019-06-20T01:38:08.897Z,17.50
2019-06-20T01:40:38.199Z,19.55
2019-06-20T01:43:07.523Z,22.95
2019-06-20T01:45:37.091Z,22.13
2019-06-20T01:48:07.144Z,18.10
2019-06-20T01:50:36.454Z,18.75
2019-06-20T01:53:06.055Z,19.15
2019-06-20T01:55:35.632Z,18.07
2019-06-20T01:58:05.233Z,22.15
2019-06-20T02:00:47.804Z,21.73
2019-06-20T02:03:17.732Z,19.70
2019-06-20T02:05:47.100Z,19.90
2019-06-20T02:08:16.557Z,17.62
2019-06-20T02:10:45.867Z,19.00
2019-06-20T02:13:15.245Z,21.15
2019-06-20T02:15:44.547Z,17.48
2019-06-20T02:18:13.861Z,20.90
2019-06-20T02:20:51.203Z,17.25
2019-06-20T02:23:21.922Z,19.45
2019-06-20T02:25:51.310Z,18.05
2019-06-20T02:28:21.213Z,17.62
2019-06-20T02:30:51.367Z,17.80
2019-06-20T02:33:20.686Z,17.98
2019-06-20T02:35:50.016Z,19.57
2019-06-20T02:38:19.414Z,16.70
2019-06-20T02:40:48.718Z,18.45
2019-06-20T02:43:18.505Z,23.77
2019-06-20T02:45:47.810Z,21.80
2019-06-20T02:48:17.160Z,20.70
2019-06-20T02:50:46.467Z,21.80
2019-06-20T02:53:15.785Z,23.00
2019-06-20T02:55:45.436Z,23.00
2019-06-20T02:58:14.757Z,22.62
2019-06-20T03:00:54.287Z,22.65
2019-06-20T03:03:24.232Z,24.82
2019-06-20T03:05:58.207Z,25.55
2019-06-20T03:08:27.898Z,27.30
2019-06-20T03:10:58.273Z,20.90
2019-06-20T03:13:27.959Z,24.02
2019-06-20T03:15:57.266Z,25.30
2019-06-20T03:18:26.860Z,23.83
2019-06-20T03:20:56.230Z,22.27
2019-06-20T03:23:25.607Z,25.48
2019-06-20T03:25:54.982Z,26.85
2019-06-20T03:28:24.565Z,25.12
2019-06-20T03:30:54.000Z,24.30
2019-06-20T03:33:23.663Z,30.15
2019-06-20T03:35:52.908Z,29.27
2019-06-20T03:38:22.490Z,26.10
2019-06-20T03:40:51.797Z,24.50
2019-06-20T03:43:21.123Z,26.30
2019-06-20T03:45:50.571Z,29.42
2019-06-20T03:48:19.908Z,26.33
2019-06-20T03:50:49.212Z,27.93
2019-06-20T03:53:18.608Z,27.07
2019-06-20T03:55:47.991Z,27.52
2019-06-20T03:58:17.311Z,25.05
2019-06-20T04:00:46.656Z,26.02
2019-06-20T04:03:15.968Z,29.50
2019-06-20T04:05:45.372Z,26.77
2019-06-20T04:08:17.709Z,25.95
2019-06-20T04:10:47.394Z,25.37
2019-06-20T04:13:16.831Z,25.50
2019-06-20T04:15:46.137Z,29.70
2019-06-20T04:18:15.451Z,29.07
2019-06-20T04:20:44.790Z,28.45
2019-06-20T04:23:14.388Z,31.35
2019-06-20T04:25:43.716Z,29.23
2019-06-20T04:28:13.031Z,28.27
2019-06-20T04:30:42.357Z,36.00
2019-06-20T04:33:11.672Z,29.05
2019-06-20T04:35:40.996Z,29.15
2019-06-20T04:38:10.310Z,30.30
2019-06-20T04:40:39.633Z,30.77
2019-06-20T04:43:11.911Z,28.98
2019-06-20T04:45:45.527Z,29.77
2019-06-20T04:48:14.864Z,31.48
2019-06-20T04:50:44.481Z,28.52
2019-06-20T04:53:16.527Z,27.82
2019-06-20T04:55:45.851Z,32.90
2019-06-20T04:58:15.455Z,26.52
2019-06-20T05:00:44.776Z,29.95
2019-06-20T05:03:14.360Z,28.60
2019-06-20T05:05:43.703Z,27.98
2019-06-20T05:08:13.376Z,31.02
2019-06-20T05:10:42.731Z,24.75
2019-06-20T05:13:12.043Z,28.25
2019-06-20T05:15:51.961Z,30.65
2019-06-20T05:18:13.023Z,28.15
2019-06-20T05:20:42.354Z,26.87
2019-06-20T05:23:11.647Z,28.55
2019-06-20T05:25:41.214Z,29.07
2019-06-20T05:28:10.545Z,38.60
2019-06-20T05:30:40.126Z,29.00
2019-06-20T05:33:09.451Z,29.82
2019-06-20T05:35:38.771Z,29.85
2019-06-20T05:38:08.085Z,30.75
2019-06-20T05:40:37.410Z,32.80
2019-06-20T05:43:07.043Z,29.02
2019-06-20T05:45:36.371Z,28.57
2019-06-20T05:48:06.119Z,33.70
2019-06-20T05:50:35.540Z,29.02
2019-06-20T05:53:05.047Z,27.58
2019-06-20T05:55:34.566Z,27.45
2019-06-20T05:58:03.874Z,30.25
2019-06-20T06:00:34.821Z,30.97
2019-06-20T06:03:06.981Z,26.57
2019-06-20T06:05:35.692Z,29.80
2019-06-20T06:08:05.012Z,27.98
2019-06-20T06:10:34.339Z,28.00
2019-06-20T06:13:03.908Z,25.65
2019-06-20T06:15:33.233Z,25.00
2019-06-20T06:18:02.670Z,28.02
2019-06-20T06:20:32.000Z,28.62
2019-06-20T06:23:01.582Z,25.08
2019-06-20T06:25:30.919Z,25.57
2019-06-20T06:28:00.233Z,28.52
2019-06-20T06:30:30.086Z,26.40
2019-06-20T06:32:59.711Z,28.70
2019-06-20T06:35:29.049Z,27.10
2019-06-20T06:37:58.353Z,29.67
2019-06-20T06:40:28.376Z,28.67
2019-06-20T06:42:57.764Z,28.92
2019-06-20T06:45:27.173Z,28.12
2019-06-20T06:47:56.531Z,27.73
2019-06-20T06:50:26.847Z,29.23
2019-06-20T06:52:56.173Z,28.60
2019-06-20T06:55:27.586Z,25.25
2019-06-20T06:57:57.192Z,26.97
2019-06-20T07:00:26.542Z,26.07
2019-06-20T07:02:56.224Z,24.98
2019-06-20T07:05:25.545Z,25.35
2019-06-20T07:07:55.115Z,25.65
2019-06-20T07:10:25.276Z,24.02
2019-06-20T07:12:54.603Z,24.32
2019-06-20T07:15:24.049Z,23.65
2019-06-20T07:17:53.374Z,24.43
2019-06-20T07:20:23.441Z,29.87
2019-06-20T07:22:53.600Z,25.68
2019-06-20T07:25:22.903Z,27.93
2019-06-20T07:27:52.224Z,24.55
2019-06-20T07:30:22.655Z,27.70
2019-06-20T07:32:51.969Z,28.15
2019-06-20T07:35:22.040Z,26.37
2019-06-20T07:37:51.843Z,27.05
2019-06-20T07:40:21.422Z,27.52
2019-06-20T07:42:51.051Z,23.27
2019-06-20T07:45:27.412Z,24.65
2019-06-20T07:47:57.452Z,25.60
2019-06-20T07:50:26.767Z,25.60
2019-06-20T07:53:01.831Z,26.25
2019-06-20T07:55:27.118Z,23.98
2019-06-20T07:57:56.438Z,20.37
2019-06-20T08:00:26.906Z,23.15
2019-06-20T08:02:56.244Z,21.12
2019-06-20T08:05:25.532Z,19.50
2019-06-20T08:07:55.228Z,19.75
2019-06-20T08:10:25.049Z,20.57
2019-06-20T08:12:54.367Z,20.80
2019-06-20T08:15:24.491Z,18.25
2019-06-20T08:17:53.814Z,19.77
2019-06-20T08:20:25.363Z,17.23
2019-06-20T08:22:54.714Z,19.92
2019-06-20T08:25:24.262Z,21.90
2019-06-20T08:27:54.116Z,22.77
2019-06-20T08:30:33.550Z,19.73
2019-06-20T08:33:07.602Z,25.65
2019-06-20T08:35:34.395Z,21.48
2019-06-20T08:38:05.608Z,22.77
2019-06-20T08:40:38.093Z,21.55
2019-06-20T08:43:07.476Z,23.27
2019-06-20T08:45:39.465Z,23.40
2019-06-20T08:48:09.216Z,23.25
2019-06-20T08:50:39.015Z,21.35
2019-06-20T08:53:08.396Z,23.42
2019-06-20T08:55:38.258Z,24.05
2019-06-20T08:58:07.700Z,21.42
2019-06-20T09:00:38.641Z,20.55
2019-06-20T09:03:08.617Z,17.92
2019-06-20T09:05:38.471Z,17.50
2019-06-20T09:08:11.298Z,17.62
2019-06-20T09:10:42.922Z,17.48
2019-06-20T09:13:13.754Z,16.90
2019-06-20T09:15:43.740Z,18.45
2019-06-20T09:18:13.584Z,15.83
2019-06-20T09:20:43.028Z,17.07
2019-06-20T09:23:12.609Z,16.48
2019-06-20T09:25:44.819Z,14.90
2019-06-20T09:28:14.192Z,16.85
2019-06-20T09:30:43.842Z,17.27
2019-06-20T09:33:13.176Z,15.98
2019-06-20T09:35:42.493Z,15.00
2019-06-20T09:38:11.869Z,19.40
2019-06-20T09:40:41.258Z,18.62
2019-06-20T09:43:10.901Z,15.98
2019-06-20T09:45:40.735Z,17.32
2019-06-20T09:48:10.314Z,15.43
2019-06-20T09:50:39.658Z,16.90
2019-06-20T09:53:08.993Z,16.25
2019-06-20T09:55:38.640Z,19.40
2019-06-20T09:58:07.946Z,16.42
2019-06-20T10:00:38.682Z,18.05
2019-06-20T10:03:08.108Z,20.02
2019-06-20T10:05:38.168Z,18.57
2019-06-20T10:08:07.431Z,19.75
2019-06-20T10:10:38.266Z,17.57
2019-06-20T10:13:07.667Z,20.02
2019-06-20T10:15:38.633Z,20.68
2019-06-20T10:18:08.328Z,21.00
2019-06-20T10:20:38.971Z,20.35
2019-06-20T10:23:08.904Z,22.32
2019-06-20T10:25:39.155Z,22.62
2019-06-20T10:28:08.851Z,22.55
2019-06-20T10:30:38.180Z,21.45
2019-06-20T10:33:07.857Z,25.45
2019-06-20T10:35:37.250Z,20.23
2019-06-20T10:38:06.596Z,17.95
2019-06-20T10:40:35.904Z,18.62
2019-06-20T10:43:05.758Z,21.50
2019-06-20T10:45:36.392Z,18.32
2019-06-20T10:48:06.368Z,19.30
2019-06-20T10:50:37.268Z,22.87
2019-06-20T10:53:06.811Z,26.10
2019-06-20T10:55:36.250Z,21.30
2019-06-20T10:58:05.774Z,23.55
2019-06-20T11:00:35.076Z,22.73
2019-06-20T11:03:04.758Z,26.30
2019-06-20T11:05:34.131Z,24.75
2019-06-20T11:08:03.693Z,25.97
2019-06-20T11:10:34.217Z,24.98
2019-06-20T11:13:03.603Z,21.62
2019-06-20T11:15:33.541Z,19.80
2019-06-20T11:18:02.896Z,21.02
2019-06-20T11:20:32.256Z,19.48
2019-06-20T11:23:01.853Z,21.52
2019-06-20T11:25:31.258Z,18.67
2019-06-20T11:28:00.619Z,17.00
2019-06-20T11:30:48.103Z,18.00
2019-06-20T11:33:05.152Z,19.90
2019-06-20T11:35:36.585Z,21.37
2019-06-20T11:38:06.290Z,19.80
2019-06-20T11:40:36.824Z,16.48
2019-06-20T11:43:06.690Z,17.75
2019-06-20T11:45:37.350Z,16.82
2019-06-20T11:48:08.416Z,12.98
2019-06-20T11:50:38.085Z,13.70
2019-06-20T11:53:07.680Z,17.80
2019-06-20T11:55:37.173Z,14.47
2019-06-20T11:58:06.480Z,15.32
2019-06-20T12:00:35.923Z,16.77
2019-06-20T12:03:05.785Z,19.55
2019-06-20T12:05:35.092Z,16.95
2019-06-20T12:08:04.676Z,16.80
2019-06-20T12:10:34.331Z,15.98
2019-06-20T12:13:03.652Z,15.43
2019-06-20T12:15:32.991Z,11.30
2019-06-20T12:18:02.647Z,12.78
2019-06-20T12:20:31.949Z,12.33
2019-06-20T12:23:01.280Z,10.35
2019-06-20T12:25:30.582Z,11.57
2019-06-20T12:27:59.967Z,9.20
2019-06-20T12:30:30.481Z,9.08
2019-06-20T12:33:00.064Z,10.08
2019-06-20T12:35:29.372Z,11.50
2019-06-20T12:37:58.684Z,10.43
2019-06-20T12:40:27.984Z,9.85
2019-06-20T12:42:57.290Z,11.60
2019-06-20T12:45:26.601Z,13.32
2019-06-20T12:47:55.919Z,13.32
2019-06-20T12:50:25.366Z,12.23
2019-06-20T12:52:54.704Z,13.22
2019-06-20T12:55:23.983Z,14.80
2019-06-20T12:57:53.299Z,13.55
2019-06-20T13:00:24.584Z,13.08
2019-06-20T13:02:53.904Z,13.08
2019-06-20T13:05:24.805Z,11.40
2019-06-20T13:07:54.469Z,11.43
2019-06-20T13:10:24.606Z,9.85
2019-06-20T13:12:53.945Z,11.33
2019-06-20T13:15:23.236Z,9.33
2019-06-20T13:17:52.549Z,11.55
2019-06-20T13:20:21.861Z,10.25
2019-06-20T13:22:51.154Z,9.75
2019-06-20T13:25:20.474Z,14.05
2019-06-20T13:27:50.557Z,11.35
2019-06-20T13:30:21.333Z,13.13
2019-06-20T13:32:50.642Z,11.88
2019-06-20T13:35:20.865Z,10.35
2019-06-20T13:37:50.308Z,12.43
2019-06-20T13:40:19.960Z,10.98
2019-06-20T13:42:50.254Z,11.20
2019-06-20T13:45:24.302Z,10.55
2019-06-20T13:47:55.092Z,10.48
2019-06-20T13:50:26.891Z,12.40
2019-06-20T13:52:56.213Z,10.90
2019-06-20T13:55:25.807Z,11.75
2019-06-20T13:57:55.531Z,9.63
2019-06-20T14:00:27.090Z,10.48
2019-06-20T14:02:56.404Z,14.53
2019-06-20T14:05:25.722Z,12.20
2019-06-20T14:07:55.997Z,12.93
2019-06-20T14:10:25.430Z,17.25
2019-06-20T14:12:54.995Z,14.63
2019-06-20T14:15:24.540Z,13.98
2019-06-20T14:17:53.983Z,13.90
2019-06-20T14:20:24.624Z,15.43
2019-06-20T14:22:54.582Z,14.87
2019-06-20T14:25:24.276Z,12.20
2019-06-20T14:27:54.179Z,20.45
2019-06-20T14:30:24.502Z,12.50
2019-06-20T14:32:54.164Z,16.95
2019-06-20T14:35:23.968Z,14.73
2019-06-20T14:37:53.613Z,14.70
2019-06-20T14:40:24.428Z,16.35
2019-06-20T14:42:54.373Z,14.07
2019-06-20T14:45:24.159Z,14.28
2019-06-20T14:47:53.521Z,13.32
2019-06-20T14:50:23.862Z,16.27
2019-06-20T14:52:54.186Z,15.40
2019-06-20T14:55:23.952Z,13.05
2019-06-20T14:57:54.718Z,16.35
2019-06-20T15:00:27.430Z,14.98
2019-06-20T15:02:58.711Z,17.67
2019-06-20T15:05:28.239Z,16.12
2019-06-20T15:07:57.608Z,14.83
2019-06-20T15:10:26.958Z,14.13
2019-06-20T15:12:56.310Z,14.55
2019-06-20T15:15:26.040Z,13.95
2019-06-20T15:17:57.825Z,13.95
2019-06-20T15:20:26.363Z,12.82
2019-06-20T15:22:56.626Z,17.23
2019-06-20T15:25:38.426Z,15.88
2019-06-20T15:28:07.732Z,14.07
2019-06-20T15:30:37.029Z,14.70
2019-06-20T15:33:10.536Z,15.40
2019-06-20T15:35:40.062Z,20.00
2019-06-20T15:38:12.171Z,15.03
2019-06-20T15:40:41.565Z,17.02
2019-06-20T15:43:10.883Z,14.50
2019-06-20T15:45:40.187Z,13.53
2019-06-20T15:48:09.541Z,13.68
2019-06-20T15:50:38.831Z,15.13
2019-06-20T15:53:08.160Z,14.40
2019-06-20T15:55:37.504Z,18.92
2019-06-20T15:58:09.498Z,13.75
2019-06-20T16:00:38.812Z,16.27
2019-06-20T16:03:10.163Z,20.88
2019-06-20T16:05:40.624Z,13.45
2019-06-20T16:08:10.154Z,17.12
2019-06-20T16:10:39.479Z,14.75
2019-06-20T16:13:08.777Z,15.23
2019-06-20T16:15:38.103Z,18.62
2019-06-20T16:18:07.431Z,18.42
2019-06-20T16:20:36.832Z,23.27
2019-06-20T16:23:06.228Z,25.52
2019-06-20T16:25:35.544Z,17.77
2019-06-20T16:28:04.948Z,15.28
2019-06-20T16:30:34.245Z,18.92
2019-06-20T16:33:03.940Z,15.23
2019-06-20T16:35:33.223Z,13.78
2019-06-20T16:38:02.834Z,15.15
2019-06-20T16:40:45.343Z,15.88
2019-06-20T16:43:14.613Z,17.00
2019-06-20T16:45:44.472Z,17.90
2019-06-20T16:48:13.796Z,19.87
2019-06-20T16:50:43.170Z,16.80
2019-06-20T16:53:12.512Z,16.75
2019-06-20T16:55:41.824Z,19.27
2019-06-20T16:58:11.143Z,19.23
2019-06-20T17:00:40.511Z,20.97
2019-06-20T17:03:09.819Z,17.77
2019-06-20T17:05:39.160Z,21.50
2019-06-20T17:08:08.564Z,19.07
2019-06-20T17:10:37.913Z,15.90
2019-06-20T17:13:07.261Z,18.20
2019-06-20T17:15:36.871Z,16.57
2019-06-20T17:18:06.352Z,17.82
2019-06-20T17:20:35.655Z,19.20
2019-06-20T17:23:26.169Z,17.10
2019-06-20T17:25:55.602Z,17.25
2019-06-20T17:28:24.853Z,19.85
2019-06-20T17:30:54.178Z,19.82
2019-06-20T17:33:25.933Z,17.77
2019-06-20T17:35:55.247Z,20.12
2019-06-20T17:38:24.560Z,18.57
2019-06-20T17:40:53.919Z,19.10
2019-06-20T17:43:23.221Z,18.80
2019-06-20T17:45:52.545Z,21.95
2019-06-20T17:48:21.887Z,19.27
2019-06-20T17:50:51.201Z,17.95
2019-06-20T17:53:20.513Z,17.98
2019-06-20T17:55:49.827Z,23.00
2019-06-20T17:58:19.160Z,20.40
2019-06-20T18:00:48.503Z,19.00
2019-06-20T18:03:18.163Z,22.52
2019-06-20T18:05:47.557Z,23.25
2019-06-20T18:08:16.862Z,20.43
2019-06-20T18:10:46.199Z,20.08
2019-06-20T18:13:15.497Z,18.98
2019-06-20T18:15:44.863Z,20.50
2019-06-20T18:18:14.356Z,21.45
2019-06-20T18:20:43.985Z,17.52
2019-06-20T18:23:13.590Z,19.10
2019-06-20T18:25:42.897Z,16.80
2019-06-20T18:28:12.476Z,18.25
2019-06-20T18:30:46.224Z,19.67
2019-06-20T18:33:15.808Z,19.25
2019-06-20T18:35:45.195Z,19.12
2019-06-20T18:38:14.529Z,19.80
2019-06-20T18:40:43.848Z,21.33
2019-06-20T18:43:13.158Z,19.05
2019-06-20T18:45:42.890Z,19.45
2019-06-20T18:48:12.198Z,19.27
2019-06-20T18:50:41.509Z,19.05
2019-06-20T18:53:11.108Z,20.80
2019-06-20T18:55:40.440Z,21.50
2019-06-20T18:58:09.788Z,21.35
2019-06-20T19:00:39.168Z,18.57
2019-06-20T19:03:08.489Z,20.95
2019-06-20T19:05:37.833Z,21.10
2019-06-20T19:08:07.151Z,22.50
2019-06-20T19:10:36.489Z,22.13
2019-06-20T19:13:05.809Z,21.55
2019-06-20T19:15:35.148Z,22.62
2019-06-20T19:18:04.532Z,21.82
2019-06-20T19:20:33.845Z,21.55
2019-06-20T19:23:03.191Z,22.25
2019-06-20T19:25:32.502Z,25.20
2019-06-20T19:28:01.836Z,26.02
2019-06-20T19:30:41.249Z,24.67
2019-06-20T19:33:10.563Z,24.18
2019-06-20T19:35:39.869Z,24.95
2019-06-20T19:38:09.235Z,25.32
2019-06-20T19:40:48.605Z,24.95
2019-06-20T19:43:18.411Z,29.15
2019-06-20T19:45:47.712Z,27.50
2019-06-20T19:48:17.142Z,22.85
2019-06-20T19:50:46.849Z,26.77
2019-06-20T19:53:16.265Z,23.95
2019-06-20T19:55:46.337Z,23.40
2019-06-20T19:58:15.685Z,24.43
2019-06-20T20:00:45.332Z,29.57
2019-06-20T20:03:14.709Z,23.18
2019-06-20T20:05:45.386Z,26.42
2019-06-20T20:08:15.106Z,27.62
2019-06-20T20:11:03.757Z,23.75
2019-06-20T20:13:33.072Z,22.98
2019-06-20T20:16:02.414Z,27.98
2019-06-20T20:18:31.716Z,26.75
2019-06-20T20:21:01.068Z,26.02
2019-06-20T20:23:30.368Z,24.47
2019-06-20T20:25:59.698Z,28.30
2019-06-20T20:28:28.993Z,23.67
2019-06-20T20:30:58.318Z,23.45
2019-06-20T20:33:27.956Z,21.00
2019-06-20T20:35:57.939Z,25.68
2019-06-20T20:38:27.598Z,22.40
2019-06-20T20:40:56.906Z,27.37
2019-06-20T20:43:26.214Z,27.02
2019-06-20T20:45:55.894Z,23.52
2019-06-20T20:48:25.196Z,25.30
2019-06-20T20:50:54.803Z,28.65
2019-06-20T20:53:24.149Z,20.95
2019-06-20T20:55:53.456Z,27.27
2019-06-20T20:58:22.760Z,23.65
2019-06-20T21:01:35.328Z,22.27
2019-06-20T21:04:03.374Z,26.12
2019-06-20T21:06:33.014Z,25.37
2019-06-20T21:09:02.351Z,26.27
2019-06-20T21:11:31.671Z,25.20
2019-06-20T21:14:00.977Z,23.67
2019-06-20T21:16:30.339Z,21.95
2019-06-20T21:18:59.644Z,23.35
2019-06-20T21:21:28.990Z,22.17
2019-06-20T21:23:58.296Z,21.60
2019-06-20T21:26:27.603Z,25.65
2019-06-20T21:28:56.919Z,26.62
2019-06-20T21:31:26.506Z,25.40
2019-06-20T21:33:56.134Z,23.32
2019-06-20T21:36:25.734Z,21.93
2019-06-20T21:38:55.055Z,21.57
2019-06-20T21:41:24.445Z,21.68
2019-06-20T21:43:53.749Z,20.52
2019-06-20T21:46:23.062Z,22.95
2019-06-20T21:48:52.385Z,24.65
2019-06-20T21:51:21.681Z,21.48
2019-06-20T21:53:51.001Z,22.32
2019-06-20T21:56:20.311Z,24.20
2019-06-20T21:58:49.927Z,22.37
2019-06-20T22:01:20.137Z,23.67
2019-06-20T22:03:49.484Z,22.62
2019-06-20T22:06:23.890Z,22.15
2019-06-20T22:08:53.128Z,23.22
2019-06-20T22:11:23.100Z,25.70
2019-06-20T22:13:52.424Z,20.95
2019-06-20T22:16:21.720Z,20.90
2019-06-20T22:18:51.040Z,19.20
2019-06-20T22:21:20.698Z,21.05
2019-06-20T22:23:50.301Z,19.82
2019-06-20T22:26:19.609Z,19.87
2019-06-20T22:28:48.913Z,19.40
2019-06-20T22:31:18.218Z,19.07
2019-06-20T22:33:47.534Z,20.82
2019-06-20T22:36:16.870Z,20.02
2019-06-20T22:38:46.227Z,19.50
2019-06-20T22:41:15.562Z,19.67
2019-06-20T22:43:44.874Z,17.82
2019-06-20T22:46:14.185Z,25.25
2019-06-20T22:48:43.872Z,19.10
2019-06-20T22:51:13.913Z,20.35
2019-06-20T22:53:43.256Z,22.73
2019-06-20T22:56:12.838Z,21.07
2019-06-20T22:58:42.194Z,23.00
2019-06-20T23:01:11.521Z,22.93
2019-06-20T23:03:40.837Z,19.62
2019-06-20T23:06:10.178Z,23.07
2019-06-20T23:08:39.495Z,23.87
2019-06-20T23:11:08.814Z,23.27
2019-06-20T23:13:38.173Z,18.15
2019-06-20T23:16:07.505Z,24.47
2019-06-20T23:18:36.796Z,19.35
2019-06-20T23:21:06.114Z,20.60
2019-06-20T23:23:35.446Z,21.07
2019-06-20T23:26:06.470Z,20.68
2019-06-20T23:28:35.804Z,19.52
2019-06-20T23:31:05.133Z,24.67
2019-06-20T23:33:34.461Z,20.45
2019-06-20T23:36:03.860Z,16.87
2019-06-20T23:38:33.515Z,21.52
2019-06-20T23:41:02.936Z,18.23
2019-06-20T23:43:32.512Z,18.57
2019-06-20T23:46:02.109Z,22.55
2019-06-20T23:48:34.686Z,19.20
2019-06-20T23:51:04.023Z,16.30
2019-06-20T23:53:33.612Z,14.15
2019-06-20T23:56:02.912Z,17.87
2019-06-20T23:58:32.236Z,17.25
